메인 페이지
METAR-TAF:

METAR-TAF

공항 :

본머스, 잉글랜드

위도: 50-47N, 경도: 001-50W, 고도: 11m

현재 날씨관측

예보는 13분 전, 16:50시(UTC)에 발표되었습니다.
서북서5kt풍과 북북동풍을 오가는
온도 23°C
습도 61%
기압 1021 hPa
시정 10km 이상
고도 3500ft 상공 구름 보통

METAR: EGHH 231650Z 30005KT 280V030 9999 SCT035 23/15 Q1021

시각: 18:03 (17:03 UTC)

예보

예보는 3 시간 5분 전, 13:58시(UTC)에 발표되었습니다.
예보 대상 시간: 23일 15시부터 23일 24시까지 (UTC)
북서10kt
시정 10km 이상
고도 1800ft 상공 구름 조금
고도 3500ft 상공 구름 보통
전환 중
23일 15시부터 23일 19시까지 (UTC)
남서4kt

TAF: EGHH 231358Z 2315/2324 31010KT 9999 FEW018 SCT035 BECMG 2315/2319 22004KT

4,000개 이상의 공항 관측 자료 및 예보 (METAR 및 TAF 보고).

지도상에서 검색 가능한 기상관측소가 노란 점과 빨간 점으로 표시되어 있습니다.

기상관측소 명을 보려면 표시 위로 마우스를 이동하세요.

날씨 관측과 예보를 보려면 클릭하세요.

지도 변경 : 확대하려면 엑스 표시가 있는 녹색 버튼, 축소하려면 빼기 표시가 있는 녹색 버튼, 다음 페이지의 지도를 보려면 녹색 화살표를 클릭하세요.


METAR-TAF: